CheckWX is a tool to help pilots better visualize weather data.  It is not intended as a substitute for an official pre-flight weather briefing.

22:40:51 UTC

EGLL METAR
London Heathrow Airport
London, United Kingdom
Current

21 mins ago

EGLL 202220Z AUTO 27008KT 9999 NCD 17/13 Q1015
Observed
Jul-20 @ 22:20 UTC
Wind
  • 270° at 8 KTS
Visibility
10,000+ meters
Flight Rules
VFR
Cloud Levels
  • Clear skies
Temperature
17°C / 63°F
Dewpoint
13°C / 55°F
Humidity
77%
Altimeter
29.97" Hg
Pressure
1014.92 hPa
Previous

51 mins ago

EGLL 202150Z AUTO 27010KT 9999 NCD 18/12 Q1015
Observed
Jul-20 @ 21:50 UTC
Wind
  • 270° at 10 KTS
Visibility
10,000+ meters
Flight Rules
VFR
Cloud Levels
  • Clear skies
Temperature
18°C / 64°F
Dewpoint
12°C / 54°F
Humidity
68%
Altimeter
29.97" Hg
Pressure
1014.92 hPa
Previous

1 hour ago

EGLL 202120Z AUTO 27010KT 9999 NCD 18/12 Q1015
Observed
Jul-20 @ 21:20 UTC
Wind
  • 270° at 10 KTS
Visibility
10,000+ meters
Flight Rules
VFR
Cloud Levels
  • Clear skies
Temperature
18°C / 64°F
Dewpoint
12°C / 54°F
Humidity
68%
Altimeter
29.97" Hg
Pressure
1014.92 hPa